createdAt,value
2023-02-11T00:02:36.818Z,66.67
2023-02-11T00:05:39.539Z,66.63
2023-02-11T00:08:42.156Z,66.38
2023-02-11T00:11:44.769Z,66.62
2023-02-11T00:14:47.393Z,66.83
2023-02-11T00:17:50.082Z,66.83
2023-02-11T00:20:52.461Z,66.64
2023-02-11T00:23:57.230Z,66.68
2023-02-11T00:27:00.382Z,66.99
2023-02-11T00:30:05.360Z,67.06
2023-02-11T00:33:07.745Z,66.48
2023-02-11T00:36:16.329Z,66.60
2023-02-11T00:39:20.746Z,66.66
2023-02-11T00:42:23.422Z,66.62
2023-02-11T00:45:25.775Z,66.54
2023-02-11T00:48:28.533Z,66.37
2023-02-11T00:51:30.925Z,66.12
2023-02-11T00:54:33.551Z,66.14
2023-02-11T00:57:36.173Z,66.03
2023-02-11T01:00:38.913Z,65.54
2023-02-11T01:03:42.158Z,64.81
2023-02-11T01:06:44.821Z,65.92
2023-02-11T01:09:47.257Z,66.21
2023-02-11T01:12:50.264Z,67.01
2023-02-11T01:15:53.714Z,65.42
2023-02-11T01:18:56.503Z,65.34
2023-02-11T01:21:59.093Z,65.72
2023-02-11T01:25:01.746Z,65.39
2023-02-11T01:28:04.659Z,65.49
2023-02-11T01:31:07.617Z,65.18
2023-02-11T01:34:10.048Z,64.54
2023-02-11T01:37:12.899Z,63.47
2023-02-11T01:40:17.640Z,63.72
2023-02-11T01:43:20.846Z,66.16
2023-02-11T01:46:32.287Z,67.38
2023-02-11T01:49:38.976Z,65.99
2023-02-11T01:52:42.642Z,67.07
2023-02-11T01:56:04.091Z,67.82
2023-02-11T01:59:17.256Z,68.39
2023-02-11T02:02:25.983Z,69.17
2023-02-11T02:05:35.834Z,69.45
2023-02-11T02:08:47.325Z,68.60
2023-02-11T02:11:50.460Z,68.36
2023-02-11T02:15:08.969Z,68.43
2023-02-11T02:18:14.500Z,68.32
2023-02-11T02:21:28.970Z,68.71
2023-02-11T02:25:05.721Z,69.10
2023-02-11T02:28:14.152Z,69.50
2023-02-11T02:31:28.877Z,69.74
2023-02-11T02:35:09.820Z,69.99
2023-02-11T02:38:27.534Z,69.77
2023-02-11T02:41:35.492Z,69.79
2023-02-11T02:44:38.156Z,69.94
2023-02-11T02:47:40.748Z,70.19
2023-02-11T02:50:43.774Z,69.89
2023-02-11T02:54:07.670Z,69.84
2023-02-11T02:57:25.703Z,69.74
2023-02-11T03:01:17.196Z,69.62
2023-02-11T03:04:29.567Z,69.64
2023-02-11T03:07:43.106Z,69.49
2023-02-11T03:10:50.079Z,69.77
2023-02-11T03:13:54.823Z,70.63
2023-02-11T03:17:00.484Z,70.08
2023-02-11T03:20:06.833Z,69.45
2023-02-11T03:23:15.604Z,69.36
2023-02-11T03:26:46.695Z,69.48
2023-02-11T03:30:01.480Z,69.49
2023-02-11T03:33:28.121Z,69.45
2023-02-11T03:36:55.990Z,69.29
2023-02-11T03:40:05.308Z,69.46
2023-02-11T03:43:19.357Z,69.71
2023-02-11T03:46:27.575Z,70.04
2023-02-11T03:49:33.319Z,69.91
2023-02-11T03:52:38.011Z,69.52
2023-02-11T03:55:42.211Z,69.94
2023-02-11T03:58:46.105Z,70.37
2023-02-11T04:01:48.967Z,70.64
2023-02-11T04:04:51.685Z,70.58
2023-02-11T04:07:54.142Z,70.59
2023-02-11T04:10:56.810Z,70.58
2023-02-11T04:13:59.182Z,70.29
2023-02-11T04:17:03.068Z,70.22
2023-02-11T04:20:05.779Z,70.16
2023-02-11T04:23:08.590Z,69.85
2023-02-11T04:26:10.959Z,70.07
2023-02-11T04:29:13.629Z,70.25
2023-02-11T04:32:16.195Z,69.70
2023-02-11T04:35:19.010Z,69.59
2023-02-11T04:38:23.932Z,69.78
2023-02-11T04:41:26.580Z,69.63
2023-02-11T04:44:28.994Z,69.63
2023-02-11T04:47:31.643Z,69.65
2023-02-11T04:50:34.007Z,69.36
2023-02-11T04:53:36.741Z,70.74
2023-02-11T04:56:39.508Z,71.17
2023-02-11T04:59:42.359Z,71.15
2023-02-11T05:02:44.741Z,70.98
2023-02-11T05:05:47.409Z,70.85
2023-02-11T05:08:49.995Z,71.43
2023-02-11T05:11:53.670Z,71.25
2023-02-11T05:14:56.049Z,70.96
2023-02-11T05:17:58.739Z,70.96
2023-02-11T05:21:07.123Z,71.17
2023-02-11T05:24:09.757Z,71.12
2023-02-11T05:27:12.112Z,72.62
2023-02-11T05:30:14.759Z,72.10
2023-02-11T05:33:17.173Z,72.15
2023-02-11T05:36:19.784Z,72.04
2023-02-11T05:39:22.199Z,71.99
2023-02-11T05:42:24.844Z,71.53
2023-02-11T05:45:27.285Z,71.14
2023-02-11T05:48:30.920Z,71.40
2023-02-11T05:51:33.216Z,71.66
2023-02-11T05:54:35.866Z,72.14
2023-02-11T05:57:39.417Z,71.93
2023-02-11T06:00:41.986Z,71.51
2023-02-11T06:03:44.701Z,71.43
2023-02-11T06:06:47.063Z,71.39
2023-02-11T06:09:49.757Z,71.58
2023-02-11T06:12:52.159Z,71.64
2023-02-11T06:15:59.569Z,71.80
2023-02-11T06:19:02.122Z,71.61
2023-02-11T06:22:04.939Z,71.78
2023-02-11T06:25:07.381Z,71.97
2023-02-11T06:28:10.772Z,72.26
2023-02-11T06:31:13.417Z,72.33
2023-02-11T06:34:16.090Z,72.54
2023-02-11T06:37:18.420Z,72.30
2023-02-11T06:40:21.346Z,71.71
2023-02-11T06:43:23.654Z,71.29
2023-02-11T06:46:26.434Z,70.93
2023-02-11T06:49:29.088Z,70.31
2023-02-11T06:52:32.394Z,70.32
2023-02-11T06:55:35.413Z,70.33
2023-02-11T06:58:38.386Z,70.33
2023-02-11T07:01:40.712Z,70.40
2023-02-11T07:04:43.429Z,70.14
2023-02-11T07:07:45.916Z,70.15
2023-02-11T07:10:48.842Z,69.79
2023-02-11T07:13:52.860Z,69.46
2023-02-11T07:16:55.432Z,69.20
2023-02-11T07:19:57.840Z,69.19
2023-02-11T07:23:00.801Z,68.78
2023-02-11T07:26:12.029Z,68.58
2023-02-11T07:29:14.837Z,67.88
2023-02-11T07:32:17.291Z,67.40
2023-02-11T07:35:20.026Z,66.52
2023-02-11T07:38:22.425Z,65.48
2023-02-11T07:41:26.062Z,62.97
2023-02-11T07:44:28.380Z,61.86
2023-02-11T07:47:31.011Z,62.01
2023-02-11T07:50:33.424Z,61.01
2023-02-11T07:53:36.220Z,61.67
2023-02-11T07:56:38.596Z,60.90
2023-02-11T07:59:41.238Z,59.00
2023-02-11T08:02:43.540Z,59.39
2023-02-11T08:05:46.172Z,58.39
2023-02-11T08:08:49.221Z,57.66
2023-02-11T08:11:51.853Z,57.38
2023-02-11T08:14:54.210Z,56.80
2023-02-11T08:17:57.157Z,56.86
2023-02-11T08:21:08.115Z,56.79
2023-02-11T08:24:10.988Z,56.57
2023-02-11T08:27:13.284Z,56.84
2023-02-11T08:30:15.902Z,55.77
2023-02-11T08:33:18.258Z,55.04
2023-02-11T08:36:23.774Z,55.09
2023-02-11T08:39:26.193Z,54.95
2023-02-11T08:42:28.798Z,55.09
2023-02-11T08:45:31.291Z,55.07
2023-02-11T08:48:34.058Z,55.32
2023-02-11T08:51:36.437Z,55.23
2023-02-11T08:54:39.246Z,55.13
2023-02-11T08:57:41.582Z,54.94
2023-02-11T09:00:45.350Z,54.81
2023-02-11T09:03:48.164Z,54.41
2023-02-11T09:06:50.858Z,54.34
2023-02-11T09:09:53.326Z,54.24
2023-02-11T09:12:56.041Z,54.36
2023-02-11T09:15:59.786Z,54.00
2023-02-11T09:19:04.832Z,54.02
2023-02-11T09:22:07.354Z,53.51
2023-02-11T09:25:11.366Z,52.78
2023-02-11T09:28:13.738Z,52.23
2023-02-11T09:31:19.522Z,51.44
2023-02-11T09:34:22.007Z,50.46
2023-02-11T09:37:24.645Z,51.10
2023-02-11T09:40:27.090Z,50.97
2023-02-11T09:43:44.771Z,50.44
2023-02-11T09:46:54.794Z,50.90
2023-02-11T09:50:02.512Z,50.20
2023-02-11T09:53:35.390Z,49.56
2023-02-11T09:56:38.052Z,49.79
2023-02-11T09:59:40.574Z,49.91
2023-02-11T10:03:14.257Z,50.13
2023-02-11T10:06:40.827Z,50.08
2023-02-11T10:09:55.327Z,50.15
2023-02-11T10:13:03.621Z,50.03
2023-02-11T10:16:18.039Z,50.01
2023-02-11T10:19:33.966Z,49.92
2023-02-11T10:22:52.951Z,50.09
2023-02-11T10:25:57.488Z,50.06
2023-02-11T10:29:04.877Z,50.03
2023-02-11T10:32:29.651Z,50.05
2023-02-11T10:35:32.747Z,49.69
2023-02-11T10:38:36.976Z,49.26
2023-02-11T10:41:44.477Z,49.24
2023-02-11T10:45:07.428Z,49.75
2023-02-11T10:48:40.936Z,49.48
2023-02-11T10:51:45.858Z,49.14
2023-02-11T10:55:16.180Z,48.51
2023-02-11T10:58:45.418Z,47.82
2023-02-11T11:01:52.628Z,47.90
2023-02-11T11:04:59.824Z,48.01
2023-02-11T11:08:08.748Z,47.82
2023-02-11T11:11:15.532Z,47.62
2023-02-11T11:14:22.205Z,47.61
2023-02-11T11:17:29.073Z,47.35
2023-02-11T11:20:36.282Z,47.30
2023-02-11T11:23:40.047Z,48.51
2023-02-11T11:26:45.849Z,48.16
2023-02-11T11:29:52.057Z,48.04
2023-02-11T11:32:54.920Z,48.59
2023-02-11T11:35:59.512Z,48.77
2023-02-11T11:39:15.412Z,48.66
2023-02-11T11:42:35.672Z,48.08
2023-02-11T11:45:38.080Z,47.23
2023-02-11T11:48:47.079Z,46.80
2023-02-11T11:52:15.893Z,46.17
2023-02-11T11:55:22.764Z,45.37
2023-02-11T11:58:25.129Z,44.38
2023-02-11T12:01:43.153Z,43.76
2023-02-11T12:05:05.760Z,43.41
2023-02-11T12:08:28.354Z,42.61
2023-02-11T12:11:37.231Z,41.92
2023-02-11T12:14:42.522Z,41.81
2023-02-11T12:18:38.653Z,42.19
2023-02-11T12:21:59.635Z,42.38
2023-02-11T12:25:15.123Z,42.12
2023-02-11T12:28:37.023Z,42.20
2023-02-11T12:32:08.025Z,42.46
2023-02-11T12:35:21.928Z,41.70
2023-02-11T12:38:24.472Z,41.92
2023-02-11T12:42:20.033Z,41.73
2023-02-11T12:45:35.954Z,40.84
2023-02-11T12:49:04.367Z,39.62
2023-02-11T12:52:16.183Z,39.57
2023-02-11T12:55:27.012Z,39.11
2023-02-11T12:58:44.654Z,38.92
2023-02-11T13:01:51.938Z,38.73
2023-02-11T13:04:59.039Z,38.92
2023-02-11T13:08:17.001Z,39.34
2023-02-11T13:11:41.083Z,38.53
2023-02-11T13:14:43.572Z,38.14
2023-02-11T13:18:02.249Z,37.99
2023-02-11T13:21:19.509Z,37.89
2023-02-11T13:24:34.772Z,38.19
2023-02-11T13:28:07.277Z,38.54
2023-02-11T13:31:12.671Z,38.36
2023-02-11T13:34:50.180Z,38.22
2023-02-11T13:37:52.919Z,38.54
2023-02-11T13:41:13.721Z,38.34
2023-02-11T13:44:22.336Z,38.60
2023-02-11T13:47:33.921Z,38.68
2023-02-11T13:50:47.831Z,38.64
2023-02-11T13:53:58.263Z,38.79
2023-02-11T13:57:26.988Z,39.61
2023-02-11T14:00:35.315Z,39.36
2023-02-11T14:03:58.120Z,39.99
2023-02-11T14:07:51.338Z,39.55
2023-02-11T14:11:12.819Z,39.50
2023-02-11T14:14:25.511Z,39.61
2023-02-11T14:17:33.869Z,39.77
2023-02-11T14:20:42.184Z,39.46
2023-02-11T14:23:46.064Z,38.92
2023-02-11T14:26:59.256Z,39.38
2023-02-11T14:30:32.161Z,39.21
2023-02-11T14:33:50.911Z,39.50
2023-02-11T14:37:02.655Z,39.51
2023-02-11T14:40:23.311Z,39.76
2023-02-11T14:43:31.742Z,40.07
2023-02-11T14:46:34.845Z,40.50
2023-02-11T14:49:40.761Z,40.38
2023-02-11T14:52:44.299Z,40.52
2023-02-11T14:55:54.970Z,40.71
2023-02-11T14:58:58.370Z,40.97
2023-02-11T15:02:01.146Z,40.81
2023-02-11T15:05:26.202Z,40.92
2023-02-11T15:08:30.997Z,41.34
2023-02-11T15:11:40.270Z,41.42
2023-02-11T15:14:48.326Z,41.67
2023-02-11T15:17:51.125Z,41.91
2023-02-11T15:20:54.461Z,42.63
2023-02-11T15:24:06.763Z,42.11
2023-02-11T15:27:11.803Z,42.21
2023-02-11T15:30:25.008Z,42.50
2023-02-11T15:33:30.235Z,42.35
2023-02-11T15:36:36.262Z,42.68
2023-02-11T15:39:41.256Z,43.22
2023-02-11T15:42:58.751Z,43.16
2023-02-11T15:46:02.111Z,43.07
2023-02-11T15:49:04.897Z,43.42
2023-02-11T15:52:08.382Z,43.91
2023-02-11T15:55:14.632Z,44.13
2023-02-11T15:58:17.346Z,44.34
2023-02-11T16:01:19.755Z,44.40
2023-02-11T16:04:25.566Z,44.81
2023-02-11T16:07:50.505Z,44.97
2023-02-11T16:10:59.767Z,44.88
2023-02-11T16:14:05.157Z,45.42
2023-02-11T16:17:13.442Z,45.42
2023-02-11T16:20:19.746Z,45.59
2023-02-11T16:23:33.159Z,45.88
2023-02-11T16:26:43.173Z,46.03
2023-02-11T16:29:49.825Z,45.96
2023-02-11T16:32:54.161Z,46.00
2023-02-11T16:35:57.846Z,46.32
2023-02-11T16:39:00.181Z,46.35
2023-02-11T16:42:06.442Z,46.53
2023-02-11T16:45:10.185Z,46.50
2023-02-11T16:48:18.089Z,46.65
2023-02-11T16:51:20.545Z,46.93
2023-02-11T16:54:24.219Z,46.91
2023-02-11T16:57:29.880Z,47.01
2023-02-11T17:00:33.164Z,47.70
2023-02-11T17:03:40.590Z,47.86
2023-02-11T17:06:43.289Z,47.43
2023-02-11T17:09:45.681Z,47.68
2023-02-11T17:12:49.064Z,47.63
2023-02-11T17:15:51.770Z,47.66
2023-02-11T17:18:54.889Z,47.57
2023-02-11T17:21:57.321Z,47.75
2023-02-11T17:25:00.035Z,47.81
2023-02-11T17:28:02.532Z,47.73
2023-02-11T17:31:09.506Z,47.75
2023-02-11T17:34:12.362Z,47.88
2023-02-11T17:37:15.268Z,47.95
2023-02-11T17:40:17.729Z,47.95
2023-02-11T17:43:20.329Z,48.15
2023-02-11T17:46:22.690Z,48.57
2023-02-11T17:49:25.408Z,48.04
2023-02-11T17:52:28.274Z,48.07
2023-02-11T17:55:34.079Z,48.21
2023-02-11T17:58:36.537Z,48.36
2023-02-11T18:01:41.245Z,48.34
2023-02-11T18:04:43.905Z,48.52
2023-02-11T18:07:48.033Z,48.47
2023-02-11T18:10:50.738Z,48.57
2023-02-11T18:13:54.615Z,48.56
2023-02-11T18:16:57.477Z,48.79
2023-02-11T18:19:59.866Z,48.89
2023-02-11T18:23:03.141Z,49.06
2023-02-11T18:26:10.000Z,49.19
2023-02-11T18:29:12.660Z,49.59
2023-02-11T18:32:15.238Z,49.94
2023-02-11T18:35:17.900Z,49.86
2023-02-11T18:38:20.713Z,50.10
2023-02-11T18:41:23.531Z,50.24
2023-02-11T18:44:27.449Z,49.82
2023-02-11T18:47:31.614Z,49.12
2023-02-11T18:50:34.045Z,48.94
2023-02-11T18:53:36.927Z,49.13
2023-02-11T18:56:40.481Z,49.33
2023-02-11T18:59:43.804Z,49.25
2023-02-11T19:02:46.154Z,49.53
2023-02-11T19:05:49.834Z,49.49
2023-02-11T19:08:53.910Z,49.62
2023-02-11T19:11:57.962Z,49.83
2023-02-11T19:15:00.852Z,49.79
2023-02-11T19:18:03.624Z,50.06
2023-02-11T19:21:11.348Z,50.86
2023-02-11T19:24:17.249Z,50.60
2023-02-11T19:27:19.538Z,49.59
2023-02-11T19:30:22.297Z,49.42
2023-02-11T19:33:24.684Z,49.07
2023-02-11T19:36:27.928Z,49.24
2023-02-11T19:39:31.378Z,49.01
2023-02-11T19:42:34.181Z,49.45
2023-02-11T19:45:37.845Z,49.53
2023-02-11T19:48:40.538Z,49.94
2023-02-11T19:51:43.464Z,49.78
2023-02-11T19:54:46.402Z,49.90
2023-02-11T19:57:51.675Z,50.13
2023-02-11T20:00:54.429Z,50.83
2023-02-11T20:03:57.773Z,50.60
2023-02-11T20:07:00.372Z,50.71
2023-02-11T20:10:03.381Z,50.87
2023-02-11T20:13:05.800Z,51.52
2023-02-11T20:16:12.414Z,51.43
2023-02-11T20:19:18.368Z,51.89
2023-02-11T20:22:21.265Z,52.21
2023-02-11T20:25:23.730Z,53.74
2023-02-11T20:28:26.747Z,55.01
2023-02-11T20:31:32.631Z,55.41
2023-02-11T20:34:35.461Z,55.54
2023-02-11T20:37:38.796Z,55.50
2023-02-11T20:40:44.166Z,55.25
2023-02-11T20:43:49.149Z,55.54
2023-02-11T20:46:53.855Z,55.65
2023-02-11T20:49:56.318Z,56.19
2023-02-11T20:52:59.005Z,56.63
2023-02-11T20:56:07.000Z,57.27
2023-02-11T20:59:10.053Z,58.32
2023-02-11T21:02:13.409Z,59.43
2023-02-11T21:05:16.248Z,59.54
2023-02-11T21:08:18.658Z,60.25
2023-02-11T21:11:21.317Z,60.44
2023-02-11T21:14:25.634Z,60.92
2023-02-11T21:17:28.256Z,61.63
2023-02-11T21:20:30.569Z,61.80
2023-02-11T21:23:33.218Z,62.13
2023-02-11T21:26:36.072Z,62.27
2023-02-11T21:29:52.676Z,62.81
2023-02-11T21:32:58.476Z,62.77
2023-02-11T21:36:03.594Z,62.58
2023-02-11T21:39:06.034Z,63.16
2023-02-11T21:42:08.922Z,62.97
2023-02-11T21:45:11.301Z,63.69
2023-02-11T21:48:14.859Z,63.77
2023-02-11T21:51:20.294Z,63.95
2023-02-11T21:54:25.911Z,64.23
2023-02-11T21:57:28.302Z,64.61
2023-02-11T22:00:31.812Z,64.66
2023-02-11T22:03:34.482Z,64.93
2023-02-11T22:06:36.888Z,65.53
2023-02-11T22:09:40.785Z,65.92
2023-02-11T22:12:43.414Z,66.47
2023-02-11T22:15:46.117Z,67.02
2023-02-11T22:18:48.562Z,67.08
2023-02-11T22:21:51.356Z,67.14
2023-02-11T22:24:54.097Z,66.90
2023-02-11T22:27:57.076Z,67.47
2023-02-11T22:30:59.642Z,67.61
2023-02-11T22:34:04.545Z,67.89
2023-02-11T22:37:07.640Z,68.05
2023-02-11T22:40:10.846Z,68.11
2023-02-11T22:43:13.348Z,68.26
2023-02-11T22:46:18.075Z,68.42
2023-02-11T22:49:22.270Z,68.61
2023-02-11T22:52:25.129Z,69.22
2023-02-11T22:55:27.628Z,69.62
2023-02-11T22:58:32.795Z,69.80
2023-02-11T23:01:36.759Z,70.27
2023-02-11T23:04:39.422Z,70.36
2023-02-11T23:07:41.869Z,70.67
2023-02-11T23:10:44.599Z,70.71
2023-02-11T23:13:48.930Z,70.74
2023-02-11T23:16:51.664Z,70.90
2023-02-11T23:19:54.278Z,71.01
2023-02-11T23:22:56.988Z,71.28
2023-02-11T23:25:59.312Z,71.54
2023-02-11T23:29:02.015Z,71.77
2023-02-11T23:32:05.003Z,71.88
2023-02-11T23:35:07.853Z,71.95
2023-02-11T23:38:10.320Z,72.11
2023-02-11T23:41:13.741Z,72.59
2023-02-11T23:44:16.163Z,72.57
2023-02-11T23:47:18.808Z,72.64
2023-02-11T23:50:21.323Z,72.55
2023-02-11T23:53:24.144Z,72.67
2023-02-11T23:56:27.749Z,72.91
2023-02-11T23:59:30.598Z,73.27
